createdAt,value
2022-12-16T00:00:05.468Z,-9.92
2022-12-16T00:01:05.550Z,-9.90
2022-12-16T00:02:05.521Z,-9.86
2022-12-16T00:03:05.548Z,-9.79
2022-12-16T00:04:05.447Z,-9.69
2022-12-16T00:05:05.407Z,-9.60
2022-12-16T00:06:05.424Z,-9.51
2022-12-16T00:07:05.396Z,-9.46
2022-12-16T00:08:05.431Z,-9.43
2022-12-16T00:09:05.376Z,-9.38
2022-12-16T00:10:05.368Z,-9.33
2022-12-16T00:11:05.356Z,-9.24
2022-12-16T00:12:05.343Z,-9.21
2022-12-16T00:13:09.067Z,-9.21
2022-12-16T00:14:06.329Z,-9.18
2022-12-16T00:15:05.295Z,-9.17
2022-12-16T00:16:05.364Z,-9.15
2022-12-16T00:17:05.282Z,-9.15
2022-12-16T00:18:05.316Z,-9.17
2022-12-16T00:19:05.264Z,-9.15
2022-12-16T00:20:05.267Z,-9.12
2022-12-16T00:21:05.249Z,-9.14
2022-12-16T00:22:05.232Z,-9.11
2022-12-16T00:23:05.277Z,-9.07
2022-12-16T00:24:05.235Z,-9.04
2022-12-16T00:25:05.193Z,-9.00
2022-12-16T00:26:05.192Z,-8.99
2022-12-16T00:27:05.175Z,-8.96
2022-12-16T00:28:05.164Z,-8.94
2022-12-16T00:29:05.178Z,-8.93
2022-12-16T00:30:05.165Z,-8.93
2022-12-16T00:31:05.199Z,-8.92
2022-12-16T00:32:05.207Z,-8.88
2022-12-16T00:33:05.102Z,-8.82
2022-12-16T00:34:05.145Z,-8.75
2022-12-16T00:35:05.095Z,-8.73
2022-12-16T00:36:05.088Z,-8.72
2022-12-16T00:37:05.077Z,-8.72
2022-12-16T00:38:05.069Z,-8.62
2022-12-16T00:39:05.089Z,-8.58
2022-12-16T00:40:05.029Z,-8.54
2022-12-16T00:41:05.029Z,-8.52
2022-12-16T00:42:05.038Z,-8.49
2022-12-16T00:43:05.008Z,-8.49
2022-12-16T00:44:05.046Z,-8.46
2022-12-16T00:45:04.988Z,-8.44
2022-12-16T00:46:05.048Z,-8.42
2022-12-16T00:47:04.971Z,-8.39
2022-12-16T00:48:04.962Z,-8.37
2022-12-16T00:49:04.991Z,-8.34
2022-12-16T00:50:04.928Z,-8.31
2022-12-16T00:51:04.920Z,-8.22
2022-12-16T00:52:04.903Z,-8.23
2022-12-16T00:53:04.887Z,-8.29
2022-12-16T00:54:04.933Z,-8.37
2022-12-16T00:55:04.882Z,-8.43
2022-12-16T00:56:04.864Z,-8.40
2022-12-16T00:57:04.864Z,-8.36
2022-12-16T00:58:04.844Z,-8.31
2022-12-16T00:59:04.862Z,-8.23
2022-12-16T01:00:04.820Z,-8.16
2022-12-16T01:01:04.870Z,-8.15
2022-12-16T01:02:04.961Z,-8.16
2022-12-16T01:03:04.808Z,-8.21
2022-12-16T01:04:04.823Z,-8.21
2022-12-16T01:05:04.757Z,-8.25
2022-12-16T01:06:04.750Z,-8.25
2022-12-16T01:07:04.734Z,-8.25
2022-12-16T01:08:04.739Z,-8.26
2022-12-16T01:09:04.769Z,-8.26
2022-12-16T01:10:04.720Z,-8.28
2022-12-16T01:11:04.694Z,-8.25
2022-12-16T01:12:04.681Z,-8.19
2022-12-16T01:13:04.666Z,-8.18
2022-12-16T01:14:04.699Z,-8.19
2022-12-16T01:15:04.689Z,-8.21
2022-12-16T01:16:04.682Z,-8.22
2022-12-16T01:17:04.627Z,-8.22
2022-12-16T01:18:04.618Z,-8.22
2022-12-16T01:19:04.651Z,-8.25
2022-12-16T01:20:04.607Z,-8.25
2022-12-16T01:21:04.576Z,-8.26
2022-12-16T01:22:04.574Z,-8.25
2022-12-16T01:23:04.571Z,-8.26
2022-12-16T01:24:04.606Z,-8.25
2022-12-16T01:25:04.541Z,-8.23
2022-12-16T01:26:04.532Z,-8.23
2022-12-16T01:27:04.517Z,-8.22
2022-12-16T01:28:04.516Z,-8.16
2022-12-16T01:29:04.540Z,-8.11
2022-12-16T01:30:04.496Z,-8.07
2022-12-16T01:31:04.489Z,-8.05
2022-12-16T01:32:04.510Z,-8.01
2022-12-16T01:33:04.450Z,-7.97
2022-12-16T01:34:04.481Z,-7.93
2022-12-16T01:35:10.715Z,-7.93
2022-12-16T01:36:05.413Z,-7.88
2022-12-16T01:37:04.420Z,-7.85
2022-12-16T01:38:04.417Z,-7.79
2022-12-16T01:39:04.388Z,-7.75
2022-12-16T01:40:04.417Z,-7.70
2022-12-16T01:41:04.388Z,-7.65
2022-12-16T01:42:04.375Z,-7.58
2022-12-16T01:43:04.348Z,-7.52
2022-12-16T01:44:04.347Z,-7.46
2022-12-16T01:45:04.378Z,-7.43
2022-12-16T01:46:04.380Z,-7.36
2022-12-16T01:47:04.314Z,-7.33
2022-12-16T01:48:04.294Z,-7.29
2022-12-16T01:49:04.298Z,-7.29
2022-12-16T01:50:04.312Z,-7.25
2022-12-16T01:51:04.262Z,-7.23
2022-12-16T01:52:04.251Z,-7.21
2022-12-16T01:53:04.256Z,-7.18
2022-12-16T01:54:04.230Z,-7.18
2022-12-16T01:55:04.263Z,-7.17
2022-12-16T01:56:04.209Z,-7.17
2022-12-16T01:57:04.210Z,-7.14
2022-12-16T01:58:04.189Z,-7.08
2022-12-16T01:59:04.172Z,-7.05
2022-12-16T02:00:04.202Z,-7.00
2022-12-16T02:01:04.218Z,-7.00
2022-12-16T02:02:04.405Z,-6.99
2022-12-16T02:03:04.249Z,-7.00
2022-12-16T02:04:04.126Z,-7.00
2022-12-16T02:05:04.144Z,-7.00
2022-12-16T02:06:04.085Z,-6.99
2022-12-16T02:07:04.086Z,-6.99
2022-12-16T02:08:04.095Z,-6.96
2022-12-16T02:09:04.075Z,-6.93
2022-12-16T02:10:04.050Z,-6.93
2022-12-16T02:11:04.088Z,-6.93
2022-12-16T02:12:04.037Z,-6.96
2022-12-16T02:13:04.061Z,-6.94
2022-12-16T02:14:04.024Z,-6.96
2022-12-16T02:15:04.011Z,-6.96
2022-12-16T02:16:04.037Z,-6.97
2022-12-16T02:17:04.128Z,-6.96
2022-12-16T02:18:03.978Z,-6.94
2022-12-16T02:19:03.949Z,-6.92
2022-12-16T02:20:03.949Z,-6.89
2022-12-16T02:21:03.976Z,-6.84
2022-12-16T02:22:03.933Z,-6.81
2022-12-16T02:23:03.914Z,-6.76
2022-12-16T02:24:03.912Z,-6.75
2022-12-16T02:25:03.898Z,-6.75
2022-12-16T02:26:03.916Z,-6.76
2022-12-16T02:27:03.876Z,-6.76
2022-12-16T02:28:03.890Z,-6.76
2022-12-16T02:29:03.852Z,-6.76
2022-12-16T02:30:03.828Z,-6.75
2022-12-16T02:31:03.904Z,-6.74
2022-12-16T02:32:03.804Z,-6.74
2022-12-16T02:33:03.814Z,-6.75
2022-12-16T02:34:03.789Z,-6.72
2022-12-16T02:35:03.795Z,-6.74
2022-12-16T02:36:03.779Z,-6.72
2022-12-16T02:37:03.742Z,-6.72
2022-12-16T02:38:03.733Z,-6.74
2022-12-16T02:39:03.724Z,-6.72
2022-12-16T02:40:03.718Z,-6.71
2022-12-16T02:41:03.766Z,-6.72
2022-12-16T02:42:03.716Z,-6.69
2022-12-16T02:43:03.690Z,-6.68
2022-12-16T02:44:03.673Z,-6.68
2022-12-16T02:45:03.674Z,-6.68
2022-12-16T02:46:03.773Z,-6.66
2022-12-16T02:47:03.651Z,-6.66
2022-12-16T02:48:03.629Z,-6.63
2022-12-16T02:49:03.617Z,-6.63
2022-12-16T02:50:03.611Z,-6.63
2022-12-16T02:51:03.635Z,-6.63
2022-12-16T02:52:03.592Z,-6.61
2022-12-16T02:53:03.586Z,-6.60
2022-12-16T02:54:03.572Z,-6.56
2022-12-16T02:55:03.581Z,-6.54
2022-12-16T02:56:03.598Z,-6.50
2022-12-16T02:57:03.553Z,-6.49
2022-12-16T02:58:03.522Z,-6.49
2022-12-16T02:59:03.520Z,-6.49
2022-12-16T03:00:03.512Z,-6.47
2022-12-16T03:01:03.605Z,-6.47
2022-12-16T03:02:03.621Z,-6.46
2022-12-16T03:03:03.620Z,-6.46
2022-12-16T03:04:03.471Z,-6.44
2022-12-16T03:05:03.442Z,-6.44
2022-12-16T03:06:03.480Z,-6.42
2022-12-16T03:07:03.418Z,-6.46
2022-12-16T03:08:03.402Z,-6.41
2022-12-16T03:09:03.399Z,-6.39
2022-12-16T03:10:03.372Z,-6.39
2022-12-16T03:11:03.423Z,-6.41
2022-12-16T03:12:03.352Z,-6.41
2022-12-16T03:13:03.369Z,-6.41
2022-12-16T03:14:03.355Z,-6.39
2022-12-16T03:15:03.354Z,-6.42
2022-12-16T03:16:03.352Z,-6.42
2022-12-16T03:17:03.374Z,-6.44
2022-12-16T03:18:03.309Z,-6.47
2022-12-16T03:19:03.289Z,-6.49
2022-12-16T03:20:03.294Z,-6.47
2022-12-16T03:21:03.316Z,-6.46
2022-12-16T03:22:03.274Z,-6.44
2022-12-16T03:23:03.254Z,-6.42
2022-12-16T03:24:03.261Z,-6.39
2022-12-16T03:25:03.216Z,-6.36
2022-12-16T03:26:03.238Z,-6.32
2022-12-16T03:27:03.209Z,-6.31
2022-12-16T03:28:03.202Z,-6.28
2022-12-16T03:29:03.177Z,-6.23
2022-12-16T03:30:03.186Z,-6.21
2022-12-16T03:31:03.286Z,-6.15
2022-12-16T03:32:03.169Z,-6.14
2022-12-16T03:33:03.152Z,-6.15
2022-12-16T03:34:03.130Z,-6.13
2022-12-16T03:35:03.134Z,-6.14
2022-12-16T03:36:03.159Z,-6.11
2022-12-16T03:37:03.110Z,-6.11
2022-12-16T03:38:03.089Z,-6.07
2022-12-16T03:39:03.066Z,-6.07
2022-12-16T03:40:03.049Z,-6.05
2022-12-16T03:41:03.070Z,-6.02
2022-12-16T03:42:03.042Z,-6.02
2022-12-16T03:43:03.038Z,-6.02
2022-12-16T03:44:03.023Z,-6.02
2022-12-16T03:45:03.011Z,-6.05
2022-12-16T03:46:03.132Z,-6.03
2022-12-16T03:47:02.981Z,-6.03
2022-12-16T03:48:02.997Z,-6.03
2022-12-16T03:49:02.971Z,-6.07
2022-12-16T03:50:02.999Z,-6.05
2022-12-16T03:51:03.002Z,-6.08
2022-12-16T03:52:02.953Z,-6.08
2022-12-16T03:53:02.940Z,-6.11
2022-12-16T03:54:02.905Z,-6.11
2022-12-16T03:55:02.913Z,-6.13
2022-12-16T03:56:02.943Z,-6.15
2022-12-16T03:57:02.894Z,-6.18
2022-12-16T03:58:02.870Z,-6.18
2022-12-16T03:59:02.847Z,-6.20
2022-12-16T04:00:02.848Z,-6.21
2022-12-16T04:01:02.878Z,-6.23
2022-12-16T04:02:02.945Z,-6.23
2022-12-16T04:03:03.077Z,-6.23
2022-12-16T04:04:02.928Z,-6.21
2022-12-16T04:05:02.796Z,-6.26
2022-12-16T04:06:02.816Z,-6.26
2022-12-16T04:07:02.771Z,-6.26
2022-12-16T04:08:02.762Z,-6.24
2022-12-16T04:09:02.759Z,-6.28
2022-12-16T04:10:02.726Z,-6.28
2022-12-16T04:11:02.763Z,-6.28
2022-12-16T04:12:02.704Z,-6.28
2022-12-16T04:13:02.696Z,-6.28
2022-12-16T04:14:02.702Z,-6.28
2022-12-16T04:15:02.689Z,-6.29
2022-12-16T04:16:02.839Z,-6.29
2022-12-16T04:17:02.701Z,-6.28
2022-12-16T04:18:02.651Z,-6.26
2022-12-16T04:19:02.631Z,-6.29
2022-12-16T04:20:02.628Z,-6.26
2022-12-16T04:21:02.613Z,-6.29
2022-12-16T04:22:02.630Z,-6.29
2022-12-16T04:23:02.591Z,-6.29
2022-12-16T04:24:02.569Z,-6.28
2022-12-16T04:25:02.563Z,-6.28
2022-12-16T04:26:02.549Z,-6.26
2022-12-16T04:27:02.597Z,-6.26
2022-12-16T04:28:02.529Z,-6.24
2022-12-16T04:29:02.535Z,-6.26
2022-12-16T04:30:02.526Z,-6.24
2022-12-16T04:31:02.545Z,-6.24
2022-12-16T04:32:02.541Z,-6.24
2022-12-16T04:33:02.498Z,-6.24
2022-12-16T04:34:02.476Z,-6.23
2022-12-16T04:35:02.495Z,-6.24
2022-12-16T04:36:02.444Z,-6.23
2022-12-16T04:37:02.455Z,-6.23
2022-12-16T04:38:02.426Z,-6.23
2022-12-16T04:39:02.432Z,-6.23
2022-12-16T04:40:02.415Z,-6.23
2022-12-16T04:41:02.389Z,-6.21
2022-12-16T04:42:02.439Z,-6.21
2022-12-16T04:43:02.365Z,-6.21
2022-12-16T04:44:02.344Z,-6.20
2022-12-16T04:45:02.351Z,-6.20
2022-12-16T04:46:02.387Z,-6.20
2022-12-16T04:47:02.378Z,-6.21
2022-12-16T04:48:02.311Z,-6.18
2022-12-16T04:49:02.308Z,-6.20
2022-12-16T04:50:02.271Z,-6.18
2022-12-16T04:51:02.297Z,-6.18
2022-12-16T04:52:02.307Z,-6.15
2022-12-16T04:53:02.274Z,-6.15
2022-12-16T04:54:02.249Z,-6.14
2022-12-16T04:55:02.227Z,-6.14
2022-12-16T04:56:04.515Z,-6.13
2022-12-16T04:57:02.260Z,-6.14
2022-12-16T04:58:02.208Z,-6.13
2022-12-16T04:59:02.196Z,-6.14
2022-12-16T05:00:02.191Z,-6.13
2022-12-16T05:01:02.172Z,-6.15
2022-12-16T05:02:02.398Z,-6.14
2022-12-16T05:03:02.158Z,-6.15
2022-12-16T05:04:02.209Z,-6.15
2022-12-16T05:05:02.141Z,-6.15
2022-12-16T05:06:02.156Z,-6.14
2022-12-16T05:07:02.185Z,-6.14
2022-12-16T05:08:02.109Z,-6.13
2022-12-16T05:09:02.096Z,-6.11
2022-12-16T05:10:02.086Z,-6.13
2022-12-16T05:11:02.077Z,-6.11
2022-12-16T05:12:02.057Z,-6.11
2022-12-16T05:13:02.072Z,-6.13
2022-12-16T05:14:02.020Z,-6.13
2022-12-16T05:15:02.005Z,-6.13
2022-12-16T05:16:02.073Z,-6.13
2022-12-16T05:17:01.995Z,-6.14
2022-12-16T05:18:02.048Z,-6.32
2022-12-16T05:19:01.976Z,-6.35
2022-12-16T05:20:01.967Z,-6.24
2022-12-16T05:21:01.954Z,-6.21
2022-12-16T05:22:01.948Z,-6.31
2022-12-16T05:23:01.976Z,-6.28
2022-12-16T05:24:01.916Z,-6.24
2022-12-16T05:25:01.915Z,-6.29
2022-12-16T05:26:01.879Z,-6.31
2022-12-16T05:27:01.900Z,-6.34
2022-12-16T05:28:01.938Z,-6.36
2022-12-16T05:29:01.863Z,-6.39
2022-12-16T05:30:01.862Z,-6.41
2022-12-16T05:31:01.879Z,-6.44
2022-12-16T05:32:01.837Z,-6.46
2022-12-16T05:33:01.875Z,-6.49
2022-12-16T05:34:01.808Z,-6.52
2022-12-16T05:35:01.786Z,-6.53
2022-12-16T05:36:01.791Z,-6.54
2022-12-16T05:37:01.769Z,-6.60
2022-12-16T05:38:01.795Z,-6.66
2022-12-16T05:39:01.749Z,-6.63
2022-12-16T05:40:01.743Z,-6.65
2022-12-16T05:41:01.732Z,-6.66
2022-12-16T05:42:01.735Z,-6.65
2022-12-16T05:43:01.768Z,-6.63
2022-12-16T05:44:01.690Z,-6.58
2022-12-16T05:45:01.678Z,-6.61
2022-12-16T05:46:01.860Z,-6.63
2022-12-16T05:47:01.848Z,-6.63
2022-12-16T05:48:01.692Z,-6.61
2022-12-16T05:49:01.643Z,-6.63
2022-12-16T05:50:01.640Z,-6.74
2022-12-16T05:51:01.632Z,-6.61
2022-12-16T05:52:01.608Z,-6.56
2022-12-16T05:53:01.646Z,-6.49
2022-12-16T05:54:01.596Z,-6.44
2022-12-16T05:55:01.598Z,-6.39
2022-12-16T05:56:03.915Z,-6.35
2022-12-16T05:57:01.539Z,-6.36
2022-12-16T05:58:01.585Z,-6.35
2022-12-16T05:59:01.529Z,-6.39
2022-12-16T06:00:01.576Z,-6.47
2022-12-16T06:01:01.506Z,-6.28
2022-12-16T06:02:01.611Z,-6.29
2022-12-16T06:03:01.661Z,-6.32
2022-12-16T06:04:01.561Z,-6.32
2022-12-16T06:05:01.474Z,-6.29
2022-12-16T06:06:01.452Z,-6.32
2022-12-16T06:07:01.438Z,-6.28
2022-12-16T06:08:01.475Z,-6.24
2022-12-16T06:09:01.443Z,-6.24
2022-12-16T06:10:01.416Z,-6.23
2022-12-16T06:11:01.420Z,-6.24
2022-12-16T06:12:01.401Z,-6.23
2022-12-16T06:13:01.409Z,-6.24
2022-12-16T06:14:01.354Z,-6.28
2022-12-16T06:15:01.338Z,-6.24
2022-12-16T06:16:06.709Z,-6.26
2022-12-16T06:17:02.341Z,-6.26
2022-12-16T06:18:01.378Z,-6.23
2022-12-16T06:19:01.307Z,-6.18
2022-12-16T06:20:01.340Z,-6.18
2022-12-16T06:21:01.294Z,-6.17
2022-12-16T06:22:01.285Z,-6.14
2022-12-16T06:23:01.291Z,-6.13
2022-12-16T06:24:01.297Z,-6.08
2022-12-16T06:25:01.268Z,-6.05
2022-12-16T06:26:01.237Z,-6.03
2022-12-16T06:27:01.224Z,-5.99
2022-12-16T06:28:01.209Z,-5.99
2022-12-16T06:29:01.240Z,-5.99
2022-12-16T06:30:01.220Z,-5.99
2022-12-16T06:31:01.183Z,-5.96
2022-12-16T06:32:01.253Z,-5.96
2022-12-16T06:33:01.196Z,-5.96
2022-12-16T06:34:01.182Z,-5.95
2022-12-16T06:35:01.131Z,-5.93
2022-12-16T06:36:01.148Z,-5.95
2022-12-16T06:37:01.119Z,-5.93
2022-12-16T06:38:01.116Z,-5.93
2022-12-16T06:39:01.141Z,-5.86
2022-12-16T06:40:01.100Z,-5.82
2022-12-16T06:41:01.060Z,-5.79
2022-12-16T06:42:01.072Z,-5.79
2022-12-16T06:43:01.044Z,-5.79
2022-12-16T06:44:01.086Z,-5.81
2022-12-16T06:45:01.035Z,-5.78
2022-12-16T06:46:01.031Z,-5.79
2022-12-16T06:47:01.009Z,-5.79
2022-12-16T06:48:00.992Z,-5.81
2022-12-16T06:49:01.022Z,-5.78
2022-12-16T06:50:00.975Z,-5.76
2022-12-16T06:51:00.973Z,-5.75
2022-12-16T06:52:00.949Z,-5.75
2022-12-16T06:53:00.954Z,-5.75
2022-12-16T06:54:00.954Z,-5.74
2022-12-16T06:55:00.906Z,-5.72
2022-12-16T06:56:00.928Z,-5.72
2022-12-16T06:57:00.888Z,-5.72
2022-12-16T06:58:01.841Z,-5.72
2022-12-16T06:59:00.916Z,-5.71
2022-12-16T07:00:01.405Z,-5.71
2022-12-16T07:01:00.960Z,-5.68
2022-12-16T07:02:00.977Z,-5.68
2022-12-16T07:03:00.940Z,-5.71
2022-12-16T07:04:00.859Z,-5.71
2022-12-16T07:05:00.810Z,-5.67
2022-12-16T07:06:00.824Z,-5.67
2022-12-16T07:07:00.788Z,-5.67
2022-12-16T07:08:00.786Z,-5.68
2022-12-16T07:09:00.796Z,-5.74
2022-12-16T07:10:00.754Z,-5.74
2022-12-16T07:11:13.816Z,-5.74
2022-12-16T07:12:01.730Z,-5.76
2022-12-16T07:13:00.709Z,-5.78
2022-12-16T07:14:00.758Z,-5.78
2022-12-16T07:15:00.690Z,-5.78
2022-12-16T07:16:00.755Z,-5.78
2022-12-16T07:17:00.688Z,-5.76
2022-12-16T07:18:00.674Z,-5.76
2022-12-16T07:19:00.634Z,-5.76
2022-12-16T07:20:00.665Z,-5.79
2022-12-16T07:21:00.623Z,-5.78
2022-12-16T07:22:00.634Z,-5.79
2022-12-16T07:23:07.808Z,-5.78
2022-12-16T07:24:01.608Z,-5.79
2022-12-16T07:25:00.633Z,-5.81
2022-12-16T07:26:00.566Z,-5.85
2022-12-16T07:27:00.574Z,-5.89
2022-12-16T07:28:00.551Z,-5.86
2022-12-16T07:29:00.548Z,-5.89
2022-12-16T07:30:00.579Z,-5.89
2022-12-16T07:31:00.521Z,-5.86
2022-12-16T07:32:00.580Z,-5.85
2022-12-16T07:33:00.508Z,-5.82
2022-12-16T07:34:00.495Z,-5.85
2022-12-16T07:35:00.514Z,-5.82
2022-12-16T07:36:00.492Z,-5.82
2022-12-16T07:37:00.443Z,-5.85
2022-12-16T07:38:00.452Z,-5.85
2022-12-16T07:39:00.423Z,-5.82
2022-12-16T07:40:00.468Z,-5.85
2022-12-16T07:41:00.417Z,-5.84
2022-12-16T07:42:00.434Z,-5.85
2022-12-16T07:43:00.403Z,-5.81
2022-12-16T07:44:00.369Z,-5.84
2022-12-16T07:45:00.409Z,-5.79
2022-12-16T07:46:00.479Z,-5.82
2022-12-16T07:47:00.355Z,-5.82
2022-12-16T07:48:00.342Z,-5.89
2022-12-16T07:49:00.308Z,-5.89
2022-12-16T07:50:00.342Z,-5.86
2022-12-16T07:51:00.298Z,-5.85
2022-12-16T07:52:00.290Z,-5.84
2022-12-16T07:53:00.263Z,-5.81
2022-12-16T07:54:00.278Z,-5.76
2022-12-16T07:55:00.313Z,-5.72
2022-12-16T07:56:00.266Z,-5.75
2022-12-16T07:57:00.228Z,-5.74
2022-12-16T07:58:00.248Z,-5.74
2022-12-16T07:59:00.233Z,-5.72
2022-12-16T08:00:00.230Z,-5.67
2022-12-16T08:01:03.747Z,-5.63
2022-12-16T08:02:01.297Z,-5.67
2022-12-16T08:03:00.381Z,-5.68
2022-12-16T08:04:00.220Z,-5.68
2022-12-16T08:05:00.169Z,-5.66
2022-12-16T08:06:00.125Z,-5.60
2022-12-16T08:07:00.146Z,-5.58
2022-12-16T08:08:00.108Z,-5.64
2022-12-16T08:09:00.086Z,-5.58
2022-12-16T08:10:00.135Z,-5.54
2022-12-16T08:11:00.102Z,-5.51
2022-12-16T08:12:00.084Z,-5.49
2022-12-16T08:13:00.064Z,-5.46
2022-12-16T08:14:00.044Z,-5.46
2022-12-16T08:15:00.115Z,-5.49
2022-12-16T08:16:00.037Z,-5.42
2022-12-16T08:17:00.078Z,-5.36
2022-12-16T08:18:00.008Z,-5.39
2022-12-16T08:18:59.989Z,-5.36
2022-12-16T08:19:59.977Z,-5.28
2022-12-16T08:21:00.002Z,-5.22
2022-12-16T08:21:59.950Z,-5.22
2022-12-16T08:22:59.945Z,-5.18
2022-12-16T08:23:59.957Z,-5.17
2022-12-16T08:24:59.929Z,-5.18
2022-12-16T08:25:59.950Z,-5.09
2022-12-16T08:26:59.886Z,-5.06
2022-12-16T08:27:59.910Z,-5.03
2022-12-16T08:29:26.861Z,-4.99
2022-12-16T08:30:00.877Z,-4.95
2022-12-16T08:30:59.935Z,-4.92
2022-12-16T08:31:59.854Z,-4.87
2022-12-16T08:33:07.171Z,-4.87
2022-12-16T08:34:00.852Z,-4.87
2022-12-16T08:34:59.812Z,-4.87
2022-12-16T08:35:59.879Z,-4.81
2022-12-16T08:36:59.812Z,-4.81
2022-12-16T08:37:59.784Z,-4.70
2022-12-16T08:38:59.788Z,-4.77
2022-12-16T08:40:33.238Z,-4.71
2022-12-16T08:41:00.797Z,-4.75
2022-12-16T08:41:59.759Z,-4.71
2022-12-16T08:42:59.749Z,-4.71
2022-12-16T08:43:59.729Z,-4.78
2022-12-16T08:44:59.726Z,-4.79
2022-12-16T08:45:59.791Z,-4.78
2022-12-16T08:46:59.691Z,-4.69
2022-12-16T08:47:59.724Z,-4.67
2022-12-16T08:48:59.671Z,-4.67
2022-12-16T08:50:01.899Z,-4.69
2022-12-16T08:50:59.686Z,-4.66
2022-12-16T08:51:59.633Z,-4.70
2022-12-16T08:52:59.614Z,-4.67
2022-12-16T08:53:59.631Z,-4.66
2022-12-16T08:54:59.617Z,-4.66
2022-12-16T08:55:59.644Z,-4.69
2022-12-16T08:56:59.595Z,-4.67
2022-12-16T08:57:59.598Z,-4.66
2022-12-16T08:58:59.576Z,-4.66
2022-12-16T08:59:59.570Z,-4.63
2022-12-16T09:01:06.257Z,-4.64
2022-12-16T09:02:00.675Z,-4.61
2022-12-16T09:02:59.700Z,-4.60
2022-12-16T09:03:59.634Z,-4.55
2022-12-16T09:04:59.525Z,-4.57
2022-12-16T09:05:59.493Z,-4.59
2022-12-16T09:06:59.525Z,-4.61
2022-12-16T09:07:59.474Z,-4.60
2022-12-16T09:08:59.465Z,-4.61
2022-12-16T09:09:59.472Z,-4.61
2022-12-16T09:10:59.450Z,-4.61
2022-12-16T09:11:59.503Z,-4.60
2022-12-16T09:12:59.421Z,-4.61
2022-12-16T09:13:59.410Z,-4.57
2022-12-16T09:14:59.389Z,-4.52
2022-12-16T09:15:59.451Z,-4.49
2022-12-16T09:16:59.421Z,-4.50
2022-12-16T09:17:59.382Z,-4.48
2022-12-16T09:18:59.347Z,-4.42
2022-12-16T09:19:59.351Z,-4.41
2022-12-16T09:20:59.351Z,-4.41
2022-12-16T09:21:59.352Z,-4.34
2022-12-16T09:22:59.302Z,-4.30
2022-12-16T09:23:59.280Z,-4.28
2022-12-16T09:24:59.274Z,-4.24
2022-12-16T09:25:59.382Z,-4.27
2022-12-16T09:26:59.329Z,-4.32
2022-12-16T09:27:59.260Z,-4.39
2022-12-16T09:28:59.226Z,-4.38
2022-12-16T09:29:59.223Z,-4.35
2022-12-16T09:30:59.318Z,-4.30
2022-12-16T09:31:59.252Z,-4.27
2022-12-16T09:32:59.213Z,-4.31
2022-12-16T09:33:59.201Z,-4.27
2022-12-16T09:34:59.167Z,-4.25
2022-12-16T09:35:59.184Z,-4.24
2022-12-16T09:36:59.210Z,-4.25
2022-12-16T09:37:59.282Z,-4.25
2022-12-16T09:38:59.148Z,-4.17
2022-12-16T09:39:59.116Z,-4.13
2022-12-16T09:40:59.132Z,-4.14
2022-12-16T09:41:59.151Z,-4.17
2022-12-16T09:42:59.096Z,-4.13
2022-12-16T09:43:59.075Z,-4.09
2022-12-16T09:44:59.091Z,-3.99
2022-12-16T09:45:59.153Z,-3.99
2022-12-16T09:47:02.171Z,-4.03
2022-12-16T09:48:00.030Z,-4.02
2022-12-16T09:48:59.020Z,-4.04
2022-12-16T09:49:59.016Z,-3.98
2022-12-16T09:50:58.999Z,-4.03
2022-12-16T09:51:59.000Z,-4.03
2022-12-16T09:52:59.003Z,-4.14
2022-12-16T09:53:58.950Z,-4.10
2022-12-16T09:54:58.931Z,-4.09
2022-12-16T09:55:58.939Z,-4.12
2022-12-16T09:56:58.931Z,-4.06
2022-12-16T09:57:58.993Z,-4.09
2022-12-16T09:58:58.913Z,-4.09
2022-12-16T09:59:58.894Z,-4.13
2022-12-16T10:00:58.906Z,-4.12
2022-12-16T10:01:58.965Z,-4.16
2022-12-16T10:03:03.388Z,-4.21
2022-12-16T10:03:59.892Z,-4.14
2022-12-16T10:04:58.844Z,-4.10
2022-12-16T10:05:58.838Z,-4.10
2022-12-16T10:06:58.819Z,-4.20
2022-12-16T10:07:58.835Z,-4.25
2022-12-16T10:08:58.814Z,-4.25
2022-12-16T10:09:58.772Z,-4.27
2022-12-16T10:10:58.788Z,-4.28
2022-12-16T10:11:58.756Z,-4.41
2022-12-16T10:12:58.779Z,-4.35
2022-12-16T10:13:58.735Z,-4.41
2022-12-16T10:14:58.736Z,-4.43
2022-12-16T10:15:58.764Z,-4.45
2022-12-16T10:16:58.714Z,-4.57
2022-12-16T10:17:58.754Z,-4.63
2022-12-16T10:18:58.816Z,-4.66
2022-12-16T10:19:58.663Z,-4.70
2022-12-16T10:20:58.673Z,-4.73
2022-12-16T10:21:58.655Z,-4.78
2022-12-16T10:22:58.692Z,-4.81
2022-12-16T10:23:58.614Z,-4.82
2022-12-16T10:24:58.627Z,-4.88
2022-12-16T10:25:58.604Z,-4.92
2022-12-16T10:26:58.711Z,-4.91
2022-12-16T10:27:58.619Z,-4.96
2022-12-16T10:28:58.579Z,-4.99
2022-12-16T10:29:58.579Z,-5.06
2022-12-16T10:30:58.595Z,-5.00
2022-12-16T10:31:58.552Z,-5.18
2022-12-16T10:32:58.589Z,-5.19
2022-12-16T10:33:58.539Z,-5.24
2022-12-16T10:34:58.513Z,-5.28
2022-12-16T10:35:58.513Z,-5.27
2022-12-16T10:36:58.497Z,-5.22
2022-12-16T10:37:58.494Z,-5.22
2022-12-16T10:38:58.537Z,-5.14
2022-12-16T10:39:58.470Z,-5.14
2022-12-16T10:40:58.448Z,-5.17
2022-12-16T10:41:58.437Z,-5.13
2022-12-16T10:42:58.448Z,-5.13
2022-12-16T10:43:58.481Z,-5.10
2022-12-16T10:44:58.411Z,-5.06
2022-12-16T10:45:58.414Z,-5.05
2022-12-16T10:46:58.439Z,-4.98
2022-12-16T10:47:58.374Z,-4.91
2022-12-16T10:48:58.460Z,-5.00
2022-12-16T10:49:58.451Z,-4.99
2022-12-16T10:50:58.343Z,-4.96
2022-12-16T10:51:58.333Z,-4.88
2022-12-16T10:52:58.338Z,-5.08
2022-12-16T10:53:58.333Z,-5.17
2022-12-16T10:54:58.289Z,-5.06
2022-12-16T10:55:58.283Z,-5.09
2022-12-16T10:56:58.276Z,-5.17
2022-12-16T10:57:58.272Z,-5.18
2022-12-16T10:58:58.299Z,-5.06
2022-12-16T10:59:58.261Z,-4.98
2022-12-16T11:00:58.235Z,-4.63
2022-12-16T11:01:58.312Z,-4.17
2022-12-16T11:02:58.429Z,-3.99
2022-12-16T11:03:58.316Z,-3.72
2022-12-16T11:04:58.225Z,-3.72
2022-12-16T11:05:58.175Z,-3.46
2022-12-16T11:06:58.185Z,-3.28
2022-12-16T11:07:58.161Z,-2.98
2022-12-16T11:08:58.190Z,-2.77
2022-12-16T11:09:58.130Z,-2.92
2022-12-16T11:10:58.146Z,-2.45
2022-12-16T11:11:58.109Z,-1.71
2022-12-16T11:12:58.118Z,-0.96
2022-12-16T11:13:58.094Z,-0.44
2022-12-16T11:15:28.866Z,-0.47
2022-12-16T11:15:59.084Z,-0.32
2022-12-16T11:16:58.065Z,-0.02
2022-12-16T11:17:58.051Z,-0.11
2022-12-16T11:18:58.035Z,0.12
2022-12-16T11:19:58.052Z,0.37
2022-12-16T11:20:58.025Z,0.37
2022-12-16T11:21:58.021Z,0.01
2022-12-16T11:22:57.996Z,0.01
2022-12-16T11:23:57.965Z,0.34
2022-12-16T11:24:57.999Z,0.77
2022-12-16T11:25:57.940Z,1.13
2022-12-16T11:26:57.960Z,1.20
2022-12-16T11:27:57.931Z,0.73
2022-12-16T11:28:58.018Z,1.30
2022-12-16T11:29:57.939Z,1.68
2022-12-16T11:30:57.949Z,1.95
2022-12-16T11:31:59.769Z,2.20
2022-12-16T11:32:57.881Z,2.29
2022-12-16T11:33:57.869Z,2.44
2022-12-16T11:34:57.887Z,2.26
2022-12-16T11:35:57.850Z,1.85
2022-12-16T11:36:57.841Z,1.97
2022-12-16T11:37:57.832Z,2.38
2022-12-16T11:38:57.808Z,2.57
2022-12-16T11:39:57.822Z,2.68
2022-12-16T11:40:57.801Z,2.83
2022-12-16T11:41:57.775Z,2.71
2022-12-16T11:43:01.192Z,2.31
2022-12-16T11:43:58.758Z,1.89
2022-12-16T11:44:57.797Z,1.42
2022-12-16T11:45:57.757Z,0.36
2022-12-16T11:46:57.768Z,0.19
2022-12-16T11:47:57.704Z,0.01
2022-12-16T11:48:57.707Z,0.05
2022-12-16T11:49:57.706Z,0.21
2022-12-16T11:50:57.695Z,-0.50
2022-12-16T11:52:21.203Z,-0.34
2022-12-16T11:52:58.661Z,-0.28
2022-12-16T11:53:57.636Z,-1.12
2022-12-16T11:54:57.638Z,-1.22
2022-12-16T11:56:10.770Z,-1.29
2022-12-16T11:56:58.667Z,-1.62
2022-12-16T11:57:57.583Z,-1.40
2022-12-16T11:58:57.587Z,-1.48
2022-12-16T11:59:57.583Z,-1.58
2022-12-16T12:00:57.605Z,-1.69
2022-12-16T12:01:57.633Z,-1.86
2022-12-16T12:02:57.593Z,-1.94
2022-12-16T12:03:57.703Z,-2.05
2022-12-16T12:04:57.517Z,-2.12
2022-12-16T12:05:57.565Z,-2.08
2022-12-16T12:06:57.507Z,-2.22
2022-12-16T12:07:57.492Z,-2.45
2022-12-16T12:08:57.491Z,-2.35
2022-12-16T12:09:57.465Z,-2.52
2022-12-16T12:10:57.485Z,-2.73
2022-12-16T12:11:57.453Z,-2.84
2022-12-16T12:12:57.445Z,-3.10
2022-12-16T12:13:57.428Z,-3.23
2022-12-16T12:14:57.408Z,-3.54
2022-12-16T12:15:57.471Z,-3.85
2022-12-16T12:16:57.390Z,-3.92
2022-12-16T12:17:57.374Z,-4.06
2022-12-16T12:18:57.375Z,-4.10
2022-12-16T12:19:57.355Z,-4.21
2022-12-16T12:20:57.377Z,-4.21
2022-12-16T12:21:57.319Z,-4.22
2022-12-16T12:22:57.329Z,-4.21
2022-12-16T12:23:57.312Z,-4.21
2022-12-16T12:24:58.203Z,-4.13
2022-12-16T12:25:57.330Z,-4.09
2022-12-16T12:26:57.267Z,-4.17
2022-12-16T12:27:57.237Z,-4.20
2022-12-16T12:28:57.246Z,-4.17
2022-12-16T12:29:57.217Z,-4.25
2022-12-16T12:30:57.293Z,-4.24
2022-12-16T12:31:57.262Z,-4.16
2022-12-16T12:32:57.210Z,-4.09
2022-12-16T12:33:57.198Z,-4.07
2022-12-16T12:34:57.192Z,-4.06
2022-12-16T12:35:57.214Z,-3.98
2022-12-16T12:36:57.166Z,-3.92
2022-12-16T12:37:57.142Z,-3.98
2022-12-16T12:38:57.151Z,-3.89
2022-12-16T12:39:57.113Z,-3.78
2022-12-16T12:40:57.141Z,-3.78
2022-12-16T12:41:57.109Z,-3.70
2022-12-16T12:42:57.114Z,-3.63
2022-12-16T12:43:57.070Z,-3.54
2022-12-16T12:44:57.092Z,-3.40
2022-12-16T12:45:57.124Z,-3.27
2022-12-16T12:46:57.102Z,-3.10
2022-12-16T12:47:57.039Z,-2.97
2022-12-16T12:48:57.799Z,-2.97
2022-12-16T12:49:57.034Z,-3.06
2022-12-16T12:50:57.052Z,-3.04
2022-12-16T12:51:56.989Z,-3.04
2022-12-16T12:52:56.990Z,-2.97